Time;durP1;ratioP1;P1;durP2;ratioP2;P2;SDS_P1;SDS_P2;PMS_P1;PMS_P2;Temp;Humidity;BMP_temperature;BMP_pressure;BME280_temperature;BME280_humidity;BME280_pressure;Samples;Min_cycle;Max_cycle;Signal;HPM_P1;HPM_P2
2021/01/15 00:02:20;;;;;;;26.52;18.77;;;;;;;-1.60;92.40;100966.91;5063566;28;20241;-66
2021/01/15 00:04:46;;;;;;;27.92;16.98;;;;;;;-1.64;92.17;100967.91;5064419;28;20218;-66
2021/01/15 00:07:12;;;;;;;27.38;18.02;;;;;;;-1.66;92.38;100976.75;5062683;28;20262;-66
2021/01/15 00:09:41;;;;;;;28.45;18.90;;;;;;;-1.63;92.17;100977.53;5064491;28;20229;-66
2021/01/15 00:12:08;;;;;;;30.45;18.85;;;;;;;-1.68;92.29;100970.66;5063020;28;20241;-66
2021/01/15 00:14:35;;;;;;;28.23;18.17;;;;;;;-1.78;92.56;100975.34;5063210;28;20248;-66
2021/01/15 00:17:01;;;;;;;26.50;16.25;;;;;;;-1.69;92.51;100961.97;5062506;28;20254;-66
2021/01/15 00:19:27;;;;;;;32.80;19.05;;;;;;;-1.67;92.26;100967.16;5064250;28;20250;-66
2021/01/15 00:21:53;;;;;;;31.48;19.08;;;;;;;-1.87;92.35;100970.34;5062220;28;20242;-66
2021/01/15 00:24:20;;;;;;;33.17;19.38;;;;;;;-1.93;92.87;100974.88;5064182;28;20237;-66
2021/01/15 00:26:47;;;;;;;28.80;18.13;;;;;;;-1.95;92.64;100970.56;5062539;28;20245;-66
2021/01/15 00:29:14;;;;;;;32.90;18.80;;;;;;;-2.03;93.11;100975.16;5063023;28;20194;-66
2021/01/15 00:31:43;;;;;;;25.08;16.55;;;;;;;-1.93;92.69;100982.75;5060349;28;20238;-66
2021/01/15 00:34:10;;;;;;;27.35;17.83;;;;;;;-1.79;92.50;100973.59;5063915;28;20264;-66
2021/01/15 00:36:37;;;;;;;29.10;17.20;;;;;;;-1.85;91.96;100976.44;5061217;28;20288;-66
2021/01/15 00:39:04;;;;;;;32.75;19.15;;;;;;;-1.93;92.16;100977.50;5063824;28;20714;-66
2021/01/15 00:41:33;;;;;;;27.58;16.42;;;;;;;-2.04;92.96;100971.69;5062341;28;20238;-66
2021/01/15 00:44:00;;;;;;;27.30;17.08;;;;;;;-2.05;93.37;100969.97;5062974;28;20291;-66
2021/01/15 00:46:31;;;;;;;30.83;17.80;;;;;;;-1.98;93.51;100973.28;5060170;28;20264;-66
2021/01/15 00:49:00;;;;;;;32.67;18.70;;;;;;;-1.79;93.24;100977.13;5064281;28;20199;-66
2021/01/15 00:51:26;;;;;;;35.47;18.20;;;;;;;-1.65;93.07;100981.97;5061792;28;20242;-67
2021/01/15 00:53:52;;;;;;;33.15;18.70;;;;;;;-1.56;92.45;100984.31;5063725;28;20235;-66
2021/01/15 00:56:18;;;;;;;29.27;19.02;;;;;;;-1.42;91.37;100983.88;5061839;28;20257;-66
2021/01/15 00:58:45;;;;;;;30.55;18.02;;;;;;;-1.62;91.88;100987.09;5063046;28;20229;-66
2021/01/15 01:01:12;;;;;;;29.58;18.92;;;;;;;-1.56;91.49;100975.59;5061391;28;20250;-66
2021/01/15 01:03:39;;;;;;;27.50;18.92;;;;;;;-1.59;91.30;100986.16;5063600;28;20674;-66
2021/01/15 01:06:10;;;;;;;33.65;19.95;;;;;;;-1.73;91.55;100994.41;5061560;28;20250;-68
2021/01/15 01:08:36;;;;;;;30.52;20.00;;;;;;;-1.69;92.25;100988.16;5063608;28;20254;-68
2021/01/15 01:11:03;;;;;;;28.33;17.80;;;;;;;-1.38;92.04;100995.16;5061744;28;20313;-68
2021/01/15 01:13:29;;;;;;;30.65;19.13;;;;;;;-1.41;91.96;100992.59;5062819;28;20242;-68
2021/01/15 01:15:55;;;;;;;33.17;18.27;;;;;;;-1.18;91.14;100994.53;5060738;28;20230;-68
2021/01/15 01:18:21;;;;;;;35.07;21.67;;;;;;;-1.15;90.96;100994.44;5062815;28;20970;-68
2021/01/15 01:20:47;;;;;;;34.73;18.97;;;;;;;-1.27;90.87;100998.28;5060623;28;20511;-67
2021/01/15 01:23:14;;;;;;;35.13;19.92;;;;;;;-1.16;90.57;101006.69;5062343;28;21004;-68
2021/01/15 01:25:40;;;;;;;34.05;20.67;;;;;;;-1.09;90.33;101003.88;5060565;28;20230;-68
2021/01/15 01:28:06;;;;;;;36.37;21.77;;;;;;;-0.95;90.01;101002.53;5063624;28;20206;-68
2021/01/15 01:30:33;;;;;;;30.40;18.58;;;;;;;-0.85;89.17;101005.75;5061572;28;20503;-68
2021/01/15 01:32:59;;;;;;;32.33;18.50;;;;;;;-1.14;89.80;101007.50;5063819;28;20199;-68
2021/01/15 01:35:25;;;;;;;36.97;20.40;;;;;;;-1.17;89.98;101006.75;5062168;28;20261;-68
2021/01/15 01:37:51;;;;;;;32.60;20.85;;;;;;;-1.23;89.94;101010.41;5064170;28;20190;-68
2021/01/15 01:40:18;;;;;;;34.90;20.27;;;;;;;-1.26;90.22;101004.41;5061594;28;20210;-68
2021/01/15 01:42:44;;;;;;;34.80;20.87;;;;;;;-1.18;90.38;101005.00;5063659;28;20226;-68
2021/01/15 01:45:11;;;;;;;29.75;20.23;;;;;;;-1.24;90.46;101011.31;5061241;28;20507;-68
2021/01/15 01:47:37;;;;;;;37.88;21.88;;;;;;;-1.08;90.33;101008.22;5063695;28;20202;-68
2021/01/15 01:50:05;;;;;;;37.88;22.13;;;;;;;-1.20;90.08;101004.22;5063428;28;20238;-67
2021/01/15 01:52:31;;;;;;;36.42;20.75;;;;;;;-1.24;90.41;101007.84;5062149;28;20285;-68
2021/01/15 01:54:58;;;;;;;32.87;19.50;;;;;;;-0.96;89.65;101013.09;5059353;28;20230;-68
2021/01/15 01:57:25;;;;;;;35.05;20.63;;;;;;;-1.11;89.93;101014.44;5061313;28;20541;-66
2021/01/15 01:59:51;;;;;;;38.45;20.60;;;;;;;-1.06;89.55;101012.53;5062578;28;20249;-68
2021/01/15 02:02:17;;;;;;;38.77;20.13;;;;;;;-1.15;90.12;101018.94;5061641;28;20233;-68
2021/01/15 02:04:43;;;;;;;35.50;21.35;;;;;;;-1.31;90.51;101019.44;5063402;28;20515;-68
2021/01/15 02:07:09;;;;;;;36.22;21.38;;;;;;;-1.35;90.53;101029.16;5061156;28;20237;-68
2021/01/15 02:09:44;;;;;;;37.95;21.00;;;;;;;-1.27;90.61;101024.53;5062672;28;20222;-68
2021/01/15 02:12:17;;;;;;;38.20;24.02;;;;;;;-1.35;90.55;101024.75;5061662;28;20265;-68
2021/01/15 02:14:53;;;;;;;37.57;20.80;;;;;;;-1.26;90.62;101030.66;5062329;28;20230;-67
2021/01/15 02:17:21;;;;;;;35.08;20.02;;;;;;;-1.33;90.77;101030.81;5061298;28;20504;-67
2021/01/15 02:19:58;;;;;;;36.80;21.27;;;;;;;-1.30;90.74;101026.38;5062830;28;20195;-68
2021/01/15 02:22:35;;;;;;;40.80;23.80;;;;;;;-1.02;90.09;101035.13;5061549;28;20246;-67
2021/01/15 02:25:38;;;;;;;36.27;21.10;;;;;;;-0.86;88.88;101030.25;5062542;28;20217;-68
2021/01/15 02:28:46;;;;;;;34.90;20.80;;;;;;;-0.84;88.75;101033.69;5061448;28;21728;-67
2021/01/15 02:31:30;;;;;;;39.10;21.33;;;;;;;-0.86;88.99;101032.88;5060334;28;20266;-67
2021/01/15 02:34:09;;;;;;;36.22;20.92;;;;;;;-1.02;89.71;101036.91;5062775;28;20457;-67
2021/01/15 02:36:38;;;;;;;37.37;23.00;;;;;;;-1.02;89.58;101042.16;5057288;28;20242;-67
2021/01/15 02:39:08;;;;;;;33.80;20.83;;;;;;;-0.89;89.76;101047.88;5062256;28;20439;-67
2021/01/15 02:41:35;;;;;;;32.08;20.17;;;;;;;-0.76;88.96;101034.31;5060669;28;20465;-67
2021/01/15 02:44:05;;;;;;;38.57;23.70;;;;;;;-0.77;88.99;101043.09;5062427;28;20756;-67
2021/01/15 02:46:44;;;;;;;39.30;22.53;;;;;;;-0.66;88.49;101048.03;5060458;28;20548;-69
2021/01/15 02:49:12;;;;;;;39.28;22.25;;;;;;;-0.88;89.08;101047.84;5062267;28;20441;-68
2021/01/15 02:51:39;;;;;;;38.63;23.40;;;;;;;-0.86;89.01;101047.78;5061047;28;20230;-66
2021/01/15 02:54:05;;;;;;;41.50;24.30;;;;;;;-0.86;89.54;101046.03;5062401;28;20210;-68
2021/01/15 02:56:32;;;;;;;40.03;23.17;;;;;;;-0.92;89.50;101050.59;5060772;28;21041;-68
2021/01/15 02:58:58;;;;;;;43.85;24.90;;;;;;;-0.99;89.70;101052.53;5062080;28;20468;-68
2021/01/15 03:01:24;;;;;;;38.80;23.33;;;;;;;-1.01;90.06;101050.00;5060060;28;20756;-68
2021/01/15 03:03:57;;;;;;;40.20;24.10;;;;;;;-0.84;89.80;101053.84;5062589;28;20245;-68
2021/01/15 03:06:32;;;;;;;38.87;23.43;;;;;;;-0.82;89.63;101055.50;5060767;28;20527;-68
2021/01/15 03:09:01;;;;;;;35.00;21.15;;;;;;;-0.72;89.11;101058.72;5062359;28;20441;-68
2021/01/15 03:11:27;;;;;;;41.28;23.98;;;;;;;-0.67;88.74;101069.06;5064881;28;20238;-68
2021/01/15 03:13:54;;;;;;;40.00;22.40;;;;;;;-0.81;89.52;101059.00;5066314;28;20254;-68
2021/01/15 03:16:22;;;;;;;37.05;22.75;;;;;;;-0.87;89.41;101062.66;5064219;28;20963;-69
2021/01/15 03:18:50;;;;;;;39.15;21.65;;;;;;;-0.61;88.51;101066.25;5066712;28;20230;-68
2021/01/15 03:21:16;;;;;;;36.50;22.90;;;;;;;-0.55;88.31;101073.94;5064282;28;20781;-68
2021/01/15 03:23:43;;;;;;;32.30;21.10;;;;;;;-0.69;88.72;101073.53;5066784;28;20198;-67
2021/01/15 03:26:09;;;;;;;40.70;23.80;;;;;;;-0.53;88.27;101085.25;5064454;28;20258;-68
2021/01/15 03:28:35;;;;;;;37.63;22.10;;;;;;;-0.67;88.45;101076.97;5066210;28;20471;-67
2021/01/15 03:31:01;;;;;;;40.70;22.98;;;;;;;-0.67;88.76;101076.97;5063679;28;20472;-67
2021/01/15 03:33:27;;;;;;;37.90;23.20;;;;;;;-0.69;89.03;101084.88;5066379;28;20522;-67
2021/01/15 03:35:54;;;;;;;34.93;22.23;;;;;;;-0.64;89.18;101082.13;5063800;28;20499;-67
2021/01/15 03:38:20;;;;;;;34.03;21.45;;;;;;;-0.49;88.27;101086.00;5066211;28;20468;-67
2021/01/15 03:40:47;;;;;;;32.33;20.83;;;;;;;-0.41;87.69;101078.75;5064246;28;20525;-67
2021/01/15 03:43:15;;;;;;;33.58;20.08;;;;;;;-0.43;88.08;101083.19;5066004;28;20424;-67
2021/01/15 03:45:43;;;;;;;36.00;21.80;;;;;;;-0.46;88.18;101083.28;5063453;28;20245;-67
2021/01/15 03:48:10;;;;;;;34.50;20.83;;;;;;;-0.29;87.50;101088.84;5065823;28;20217;-68
2021/01/15 03:50:36;;;;;;;34.07;20.00;;;;;;;-0.31;87.44;101089.78;5063777;28;20265;-67
2021/01/15 03:53:03;;;;;;;35.57;20.40;;;;;;;-0.25;87.18;101084.34;5065855;28;20498;-67
2021/01/15 03:55:29;;;;;;;31.97;21.50;;;;;;;-0.32;87.48;101094.19;5063825;28;20488;-67
2021/01/15 03:57:56;;;;;;;35.05;20.50;;;;;;;-0.24;87.48;101092.19;5064911;28;20464;-67
2021/01/15 04:00:23;;;;;;;37.03;21.87;;;;;;;-0.16;87.06;101098.94;5062751;28;20249;-67
2021/01/15 04:02:49;;;;;;;35.40;21.87;;;;;;;-0.17;86.77;101100.72;5065739;28;20457;-67
2021/01/15 04:05:15;;;;;;;30.80;19.73;;;;;;;-0.35;87.50;101106.56;5063214;28;20524;-67
2021/01/15 04:07:41;;;;;;;30.93;20.67;;;;;;;-0.45;88.18;101112.13;5065217;28;20849;-67
2021/01/15 04:10:10;;;;;;;31.30;20.50;;;;;;;-0.61;88.45;101103.00;5063472;28;20530;-67
2021/01/15 04:12:36;;;;;;;33.07;19.30;;;;;;;-0.64;88.95;101111.84;5065257;28;20480;-67
2021/01/15 04:15:04;;;;;;;38.27;20.57;;;;;;;-0.55;88.63;101115.09;5064356;28;20506;-66
2021/01/15 04:17:30;;;;;;;33.80;20.20;;;;;;;-0.79;89.35;101117.56;5063974;28;20473;-67
2021/01/15 04:19:56;;;;;;;30.70;20.00;;;;;;;-0.61;89.44;101121.38;5064651;28;20461;-66
2021/01/15 04:22:23;;;;;;;32.93;19.90;;;;;;;-0.71;89.57;101115.59;5063198;28;20257;-67
2021/01/15 04:24:49;;;;;;;36.10;20.48;;;;;;;-0.61;89.14;101114.41;5064834;28;20487;-67
2021/01/15 04:27:15;;;;;;;32.05;21.95;;;;;;;-0.50;88.71;101124.56;5063224;28;20238;-67
2021/01/15 04:29:42;;;;;;;33.90;20.50;;;;;;;-0.52;88.89;101118.50;5064662;28;20258;-67
2021/01/15 04:32:09;;;;;;;34.08;20.48;;;;;;;-0.56;88.72;101124.72;5063525;28;20477;-68
2021/01/15 04:34:35;;;;;;;38.65;21.33;;;;;;;-0.67;89.23;101126.84;5064990;28;20221;-67
2021/01/15 04:37:01;;;;;;;34.40;20.90;;;;;;;-0.61;89.19;101126.66;5063735;28;20277;-67
2021/01/15 04:39:27;;;;;;;33.63;20.73;;;;;;;-0.63;89.44;101133.72;5064779;28;20512;-67
2021/01/15 04:41:53;;;;;;;34.40;20.70;;;;;;;-0.76;89.41;101135.88;5063309;28;20911;-68
2021/01/15 04:44:19;;;;;;;31.50;20.37;;;;;;;-0.80;89.98;101142.97;5064644;28;20452;-68
2021/01/15 04:46:46;;;;;;;38.70;19.40;;;;;;;-0.71;89.74;101138.34;5062399;28;20514;-67
2021/01/15 04:49:13;;;;;;;36.00;20.70;;;;;;;-0.81;89.81;101145.66;5065171;28;20440;-67
2021/01/15 04:51:40;;;;;;;33.20;20.57;;;;;;;-0.79;89.66;101147.31;5062647;28;20472;-67
2021/01/15 04:54:10;;;;;;;34.10;21.07;;;;;;;-0.78;89.72;101149.03;5064489;28;20901;-68
2021/01/15 04:56:39;;;;;;;34.50;19.58;;;;;;;-0.64;89.28;101142.53;5062620;28;20481;-67
2021/01/15 04:59:08;;;;;;;36.53;20.73;;;;;;;-0.62;89.03;101143.31;5064205;28;20206;-67
2021/01/15 05:01:36;;;;;;;31.40;19.13;;;;;;;-0.66;89.32;101152.19;5062084;28;20502;-68
2021/01/15 05:04:06;;;;;;;35.08;20.33;;;;;;;-0.52;89.04;101155.28;5064379;28;20289;-67
2021/01/15 05:06:46;;;;;;;40.25;20.88;;;;;;;-0.54;88.79;101156.22;5062286;28;20726;-67
2021/01/15 05:09:13;;;;;;;37.05;20.70;;;;;;;-0.49;89.07;101162.19;5064139;28;20194;-67
2021/01/15 05:11:40;;;;;;;35.50;20.50;;;;;;;-0.41;88.41;101155.78;5053850;28;20754;-68
2021/01/15 05:14:10;;;;;;;30.63;19.03;;;;;;;-0.36;87.90;101160.91;5061653;28;20485;-67
2021/01/15 05:16:37;;;;;;;30.67;18.90;;;;;;;-0.32;87.74;101159.88;5060929;28;20518;-67
2021/01/15 05:19:04;;;;;;;28.60;19.53;;;;;;;-0.34;88.28;101171.38;5063349;28;20425;-68
2021/01/15 05:21:30;;;;;;;33.40;19.87;;;;;;;-0.45;88.33;101163.78;5056791;28;20614;-67
2021/01/15 05:23:57;;;;;;;33.53;20.40;;;;;;;-0.32;87.69;101164.28;5062704;28;20437;-67
2021/01/15 05:26:25;;;;;;;30.87;18.73;;;;;;;-0.32;87.94;101170.41;5061022;28;20575;-69
2021/01/15 05:28:52;;;;;;;31.70;20.07;;;;;;;-0.42;87.99;101180.34;5061531;28;20452;-67
2021/01/15 05:31:18;;;;;;;28.47;19.20;;;;;;;-0.30;87.17;101175.59;5059821;28;20512;-68
2021/01/15 05:34:09;;;;;;;28.45;18.30;;;;;;;-0.47;87.75;101184.00;5062143;28;20472;-68
2021/01/15 05:36:36;;;;;;;30.43;18.97;;;;;;;-0.45;87.87;101180.44;5061071;28;20259;-68
2021/01/15 05:39:11;;;;;;;32.93;19.80;;;;;;;-0.52;88.62;101186.78;5062982;28;20448;-69
2021/01/15 05:41:37;;;;;;;35.43;20.70;;;;;;;-0.64;88.80;101193.28;5060604;28;20472;-69
2021/01/15 05:44:04;;;;;;;28.43;17.40;;;;;;;-0.63;89.49;101187.09;5061991;28;20453;-70
2021/01/15 05:46:31;;;;;;;30.90;21.10;;;;;;;-0.57;89.49;101200.06;5060680;28;20857;-67
2021/01/15 05:48:58;;;;;;;32.33;18.95;;;;;;;-0.66;89.46;101189.84;5062596;28;20479;-67
2021/01/15 05:51:27;;;;;;;32.70;18.77;;;;;;;-0.60;89.47;101205.38;5059998;28;20324;-67
2021/01/15 05:53:54;;;;;;;30.07;19.03;;;;;;;-0.41;88.00;101192.56;5062584;28;20509;-67
2021/01/15 05:56:22;;;;;;;33.90;19.17;;;;;;;-0.26;87.43;101190.34;5060188;28;20911;-67
2021/01/15 05:59:01;;;;;;;28.53;19.30;;;;;;;-0.16;86.24;101199.66;5061871;28;20473;-67
2021/01/15 06:01:44;;;;;;;28.23;17.95;;;;;;;-0.21;86.13;101189.31;5059868;28;20477;-67
2021/01/15 06:04:11;;;;;;;33.70;18.73;;;;;;;-0.26;86.38;101195.59;5061991;28;20366;-70
2021/01/15 06:06:38;;;;;;;28.33;16.83;;;;;;;-0.40;86.54;101196.03;5060030;28;20515;-69
2021/01/15 06:09:06;;;;;;;24.90;17.00;;;;;;;-0.35;86.89;101198.53;5061991;28;20465;-68
2021/01/15 06:11:34;;;;;;;31.03;18.17;;;;;;;-0.33;86.26;101197.59;5060167;28;20500;-68
2021/01/15 06:14:00;;;;;;;27.13;17.30;;;;;;;-0.35;86.44;101198.53;5061019;28;20502;-67
2021/01/15 06:16:26;;;;;;;25.50;17.60;;;;;;;-0.35;86.23;101195.91;5059543;28;20519;-67
2021/01/15 06:18:59;;;;;;;26.23;17.83;;;;;;;-0.23;85.99;101196.38;5061882;28;20445;-67
2021/01/15 06:21:32;;;;;;;25.83;16.90;;;;;;;-0.33;86.18;101201.97;5059009;28;20523;-69
2021/01/15 06:24:07;;;;;;;26.13;18.37;;;;;;;-0.33;86.43;101201.97;5061559;28;20804;-67
2021/01/15 06:26:38;;;;;;;27.47;17.40;;;;;;;-0.43;86.67;101207.50;5059969;28;20544;-69
2021/01/15 06:29:10;;;;;;;27.30;16.87;;;;;;;-0.41;86.64;101207.47;5061049;28;20433;-68
2021/01/15 06:31:48;;;;;;;26.20;17.63;;;;;;;-0.42;87.07;101209.25;5059033;28;20504;-69
2021/01/15 06:34:16;;;;;;;29.03;16.77;;;;;;;-0.43;87.20;101210.16;5061471;28;20479;-67
2021/01/15 06:36:49;;;;;;;25.95;16.77;;;;;;;-0.41;87.29;101210.09;5059324;28;20480;-67
2021/01/15 06:39:17;;;;;;;26.13;17.17;;;;;;;-0.40;86.89;101209.16;5061469;28;20228;-67
2021/01/15 06:41:44;;;;;;;27.73;17.43;;;;;;;-0.45;87.24;101214.59;5059952;28;20492;-67
2021/01/15 06:44:11;;;;;;;29.27;18.50;;;;;;;-0.49;87.49;101215.56;5061318;28;20471;-66
2021/01/15 06:46:41;;;;;;;26.63;18.23;;;;;;;-0.46;87.67;101223.38;5055544;28;20977;-67
2021/01/15 06:49:14;;;;;;;33.87;19.27;;;;;;;-0.49;88.24;101225.22;5059145;28;20480;-65
2021/01/15 06:51:53;;;;;;;37.47;19.30;;;;;;;-0.45;87.62;101224.22;5059202;28;21261;-67
2021/01/15 06:54:24;;;;;;;28.40;17.80;;;;;;;-0.44;87.35;101221.53;5060403;28;20505;-67
2021/01/15 06:56:58;;;;;;;35.33;20.70;;;;;;;-0.53;87.46;101234.97;5059216;28;20491;-68
2021/01/15 06:59:32;;;;;;;32.83;19.83;;;;;;;-0.54;87.64;101233.22;5060774;28;20511;-68
2021/01/15 07:02:09;;;;;;;28.17;18.00;;;;;;;-0.55;87.71;101228.91;5049225;28;20515;-68
2021/01/15 07:04:45;;;;;;;34.97;20.15;;;;;;;-0.54;87.58;101227.13;5059795;28;20499;-68
2021/01/15 07:07:13;;;;;;;30.50;19.60;;;;;;;-0.66;87.72;101231.84;5059839;28;20265;-69
2021/01/15 07:09:41;;;;;;;30.67;19.17;;;;;;;-0.60;87.63;101236.06;5060126;28;20472;-67
2021/01/15 07:12:10;;;;;;;29.05;19.20;;;;;;;-0.66;87.75;101223.09;5059332;28;20477;-67
2021/01/15 07:14:48;;;;;;;30.10;18.80;;;;;;;-0.73;88.29;101229.44;5060513;28;20218;-68
2021/01/15 07:17:27;;;;;;;31.53;18.80;;;;;;;-0.75;88.39;101234.72;5059615;28;20539;-67
2021/01/15 07:20:08;;;;;;;28.10;20.00;;;;;;;-0.81;88.26;101225.25;5060603;28;20436;-68
2021/01/15 07:22:42;;;;;;;33.00;18.17;;;;;;;-0.89;88.61;101231.63;5057010;28;20508;-68
2021/01/15 07:25:10;;;;;;;28.90;18.60;;;;;;;-0.82;88.22;101230.56;5054369;28;20547;-68
2021/01/15 07:27:39;;;;;;;25.05;17.10;;;;;;;-0.85;88.05;101231.53;5059137;28;20441;-68
2021/01/15 07:30:10;;;;;;;28.85;16.60;;;;;;;-0.85;88.17;101235.88;5057600;28;20218;-67
2021/01/15 07:32:37;;;;;;;26.37;16.57;;;;;;;-0.92;88.77;101239.59;5043713;28;20298;-67
2021/01/15 07:35:06;;;;;;;27.83;17.10;;;;;;;-0.95;88.67;101243.19;5050045;28;20785;-69
2021/01/15 07:37:32;;;;;;;25.83;17.20;;;;;;;-0.91;89.07;101249.19;5057961;28;20481;-68
2021/01/15 07:40:10;;;;;;;29.20;18.73;;;;;;;-0.84;88.50;101246.34;5060059;28;20452;-69
2021/01/15 07:42:45;;;;;;;25.73;16.98;;;;;;;-0.77;88.46;101245.25;5057705;28;20472;-69
2021/01/15 07:45:50;;;;;;;28.23;18.33;;;;;;;-0.75;88.35;101253.09;5056836;28;20226;-69
2021/01/15 07:48:17;;;;;;;29.90;19.43;;;;;;;-0.59;88.00;101261.41;5056632;28;20460;-68
2021/01/15 07:50:44;;;;;;;28.17;18.17;;;;;;;-0.60;87.87;101259.69;5057552;28;20464;-69
2021/01/15 07:53:16;;;;;;;32.47;18.00;;;;;;;-0.60;87.65;101259.69;5059593;28;20950;-69
2021/01/15 07:55:44;;;;;;;30.33;18.90;;;;;;;-0.55;87.69;101268.31;5059467;28;20472;-68
2021/01/15 07:58:12;;;;;;;27.63;17.50;;;;;;;-0.48;87.22;101269.00;5063078;28;20748;-69
2021/01/15 08:00:39;;;;;;;29.10;16.67;;;;;;;-0.44;86.71;101270.59;5059388;28;20533;-67
2021/01/15 08:03:06;;;;;;;27.50;17.20;;;;;;;-0.57;87.28;101281.47;5063156;28;20457;-70
2021/01/15 08:05:33;;;;;;;26.07;16.37;;;;;;;-0.47;87.04;101279.44;5061355;28;20484;-69
2021/01/15 08:08:06;;;;;;;29.27;17.07;;;;;;;-0.47;87.28;101289.97;5063523;28;20941;-69
2021/01/15 08:10:32;;;;;;;29.33;17.80;;;;;;;-0.40;86.94;101288.88;5061177;28;20465;-68
2021/01/15 08:12:59;;;;;;;28.43;17.03;;;;;;;-0.35;86.30;101296.59;5061747;28;20202;-68
2021/01/15 08:15:30;;;;;;;26.50;15.90;;;;;;;-0.50;86.29;101292.66;5056777;28;20476;-69
2021/01/15 08:17:56;;;;;;;25.80;17.00;;;;;;;-0.49;86.83;101297.00;5059734;28;20445;-68
2021/01/15 08:20:37;;;;;;;25.75;16.05;;;;;;;-0.47;86.80;101299.59;5059216;28;20475;-69
2021/01/15 08:23:04;;;;;;;26.83;16.27;;;;;;;-0.34;86.18;101297.47;4989264;28;20228;-69
2021/01/15 08:25:30;;;;;;;25.57;16.40;;;;;;;-0.34;86.08;101308.84;4993043;28;20479;-71
2021/01/15 08:27:58;;;;;;;27.23;16.40;;;;;;;-0.29;86.02;101311.34;4986630;28;20458;-69
2021/01/15 08:30:24;;;;;;;26.43;16.83;;;;;;;-0.16;85.86;101311.84;4996967;28;20251;-70
2021/01/15 08:32:51;;;;;;;26.73;16.70;;;;;;;-0.12;85.73;101313.44;4998592;28;20476;-70
2021/01/15 08:35:25;;;;;;;29.90;17.40;;;;;;;-0.15;85.80;101317.03;4986372;28;20448;-69
2021/01/15 08:37:57;;;;;;;26.63;17.03;;;;;;;0.01;85.30;101332.38;4997895;28;20961;-68
2021/01/15 08:40:27;;;;;;;27.27;16.80;;;;;;;0.06;84.52;101326.06;4995866;28;20451;-68
2021/01/15 08:42:55;;;;;;;26.77;16.97;;;;;;;0.15;84.28;101327.53;4991544;28;20452;-68
2021/01/15 08:45:24;;;;;;;31.10;17.20;;;;;;;0.10;84.20;101329.44;4990686;28;20511;-68
2021/01/15 08:48:06;;;;;;;27.97;17.73;;;;;;;0.21;83.83;101327.34;4993276;28;20452;-67
2021/01/15 08:50:32;;;;;;;25.07;17.00;;;;;;;0.17;83.43;101331.84;4910510;29;20502;-69
2021/01/15 08:53:00;;;;;;;23.35;16.02;;;;;;;0.22;83.44;101336.09;4915168;29;20487;-69
2021/01/15 08:55:26;;;;;;;29.00;17.50;;;;;;;0.28;83.81;101336.78;4916706;29;20239;-67
2021/01/15 08:57:53;;;;;;;25.90;16.90;;;;;;;0.35;83.42;101340.94;4920964;29;20459;-68
2021/01/15 09:00:19;;;;;;;30.73;19.63;;;;;;;0.22;83.87;101342.22;4947757;28;20518;-70
2021/01/15 09:02:46;;;;;;;25.10;16.87;;;;;;;0.22;83.59;101341.34;4977598;28;20441;-69
2021/01/15 09:05:16;;;;;;;24.63;16.90;;;;;;;0.15;83.69;101338.91;4976747;28;20496;-70
2021/01/15 09:07:44;;;;;;;25.20;17.33;;;;;;;0.18;82.90;101349.34;4976447;28;20460;-67
2021/01/15 09:10:12;;;;;;;30.50;17.47;;;;;;;0.35;82.85;101356.72;4964499;28;20468;-72
2021/01/15 09:12:42;;;;;;;28.03;17.57;;;;;;;0.28;82.99;101354.31;4962138;28;20999;-72
2021/01/15 09:15:09;;;;;;;26.07;17.17;;;;;;;0.31;82.51;101365.63;4966123;28;20500;-72
2021/01/15 09:17:35;;;;;;;28.73;16.33;;;;;;;0.25;82.92;101359.69;4977469;28;20461;-71
2021/01/15 09:20:01;;;;;;;24.97;16.53;;;;;;;0.05;82.72;101369.00;4963500;28;20464;-70
2021/01/15 09:22:30;;;;;;;20.33;14.27;;;;;;;-0.09;83.53;101363.31;4975375;28;20480;-70
2021/01/15 09:24:56;;;;;;;22.70;14.80;;;;;;;-0.06;83.12;101371.97;4972597;28;20476;-70
2021/01/15 09:27:24;;;;;;;22.23;13.73;;;;;;;-0.23;83.57;101367.19;5003955;28;20484;-69
2021/01/15 09:29:50;;;;;;;21.67;13.23;;;;;;;-0.16;83.68;101372.28;5060976;28;20512;-68
2021/01/15 09:32:16;;;;;;;22.33;14.70;;;;;;;-0.16;84.00;101378.41;5058738;28;20907;-66
2021/01/15 09:34:42;;;;;;;25.90;15.87;;;;;;;-0.06;82.91;101376.38;5060804;28;20444;-66
2021/01/15 09:37:09;;;;;;;22.53;14.57;;;;;;;-0.08;82.81;101378.19;5058984;28;20483;-67
2021/01/15 09:39:36;;;;;;;20.90;13.63;;;;;;;-0.16;82.87;101381.03;5060412;28;20497;-70
2021/01/15 09:42:02;;;;;;;20.30;13.83;;;;;;;-0.30;83.74;101389.28;5059024;28;20492;-70
2021/01/15 09:44:29;;;;;;;22.90;13.90;;;;;;;-0.41;83.75;101388.75;5060808;28;20460;-68
2021/01/15 09:46:57;;;;;;;22.40;16.50;;;;;;;-0.45;84.09;101389.72;5057661;28;20503;-68
2021/01/15 09:49:23;;;;;;;22.30;15.27;;;;;;;-0.37;84.04;101393.00;5061150;28;20624;-69
2021/01/15 09:51:51;;;;;;;24.03;14.57;;;;;;;-0.47;84.24;101389.78;5058335;28;20537;-69
2021/01/15 09:54:17;;;;;;;19.40;14.60;;;;;;;-0.47;84.06;101391.53;5060785;28;20516;-68
2021/01/15 09:56:45;;;;;;;21.20;14.03;;;;;;;-0.50;83.75;101395.13;5057006;28;20477;-70
2021/01/15 09:59:15;;;;;;;23.80;15.67;;;;;;;-0.43;84.12;101396.66;5059864;28;20465;-70
2021/01/15 10:01:41;;;;;;;22.40;14.03;;;;;;;-0.35;84.00;101400.84;5058369;28;20464;-70
2021/01/15 10:04:08;;;;;;;25.57;16.03;;;;;;;-0.23;83.95;101406.63;5060853;28;20483;-68
2021/01/15 10:06:37;;;;;;;24.27;14.63;;;;;;;-0.09;83.11;101411.47;5058871;28;20588;-69
2021/01/15 10:09:04;;;;;;;26.30;14.43;;;;;;;-0.11;83.28;101405.41;5060312;28;20448;-68
2021/01/15 10:11:32;;;;;;;23.07;14.13;;;;;;;-0.17;83.60;101404.72;5057920;28;20476;-68
2021/01/15 10:14:00;;;;;;;22.60;15.27;;;;;;;-0.14;83.32;101405.53;5060125;28;20483;-70
2021/01/15 10:16:27;;;;;;;19.37;14.37;;;;;;;-0.04;83.45;101408.72;5057704;28;20470;-69
2021/01/15 10:18:55;;;;;;;24.30;14.80;;;;;;;-0.02;83.30;101409.53;5060183;28;20449;-69
2021/01/15 10:21:22;;;;;;;27.60;16.63;;;;;;;0.02;83.50;101420.81;5058851;28;20496;-69
2021/01/15 10:23:49;;;;;;;25.20;15.63;;;;;;;0.04;83.26;101417.25;5059949;28;20441;-69
2021/01/15 10:26:22;;;;;;;25.33;16.70;;;;;;;0.08;83.28;101421.50;5058363;28;20492;-69
2021/01/15 10:28:49;;;;;;;23.37;15.13;;;;;;;0.12;83.05;101419.66;5059624;28;20448;-68
2021/01/15 10:31:16;;;;;;;24.25;16.27;;;;;;;0.16;83.04;101419.53;5057630;28;20455;-68
2021/01/15 10:33:42;;;;;;;25.07;16.10;;;;;;;0.07;83.43;101418.94;5060321;28;20194;-68
2021/01/15 10:36:09;;;;;;;26.07;16.33;;;;;;;0.14;83.20;101413.47;5058795;28;20491;-67
2021/01/15 10:38:36;;;;;;;26.83;14.80;;;;;;;0.06;82.69;101402.31;5059956;28;20528;-67
2021/01/15 10:41:03;;;;;;;25.57;16.73;;;;;;;0.02;82.51;101410.31;5059394;28;20465;-72
2021/01/15 10:43:29;;;;;;;24.90;15.90;;;;;;;-0.16;83.38;101411.72;5060120;28;20445;-65
2021/01/15 10:45:55;;;;;;;23.13;14.45;;;;;;;-0.03;83.09;101416.56;5057501;28;20507;-69
2021/01/15 10:48:23;;;;;;;21.03;14.70;;;;;;;0.28;82.72;101420.06;5059902;28;20225;-68
2021/01/15 10:50:49;;;;;;;28.17;16.63;;;;;;;0.50;82.16;101420.28;5057477;28;21225;-68
2021/01/15 10:53:15;;;;;;;27.47;15.70;;;;;;;0.46;82.24;101411.63;5060530;28;20520;-68
2021/01/15 10:55:42;;;;;;;23.67;15.17;;;;;;;0.41;82.42;101404.78;5057677;28;20464;-68
2021/01/15 10:58:08;;;;;;;27.53;14.53;;;;;;;0.49;82.47;101408.03;5058129;28;20468;-69
2021/01/15 11:00:35;;;;;;;25.60;15.40;;;;;;;0.55;81.93;101408.69;5057054;28;20522;-68
2021/01/15 11:03:01;;;;;;;22.07;15.60;;;;;;;0.44;82.16;101407.31;5060255;28;20475;-69
2021/01/15 11:05:28;;;;;;;21.03;14.83;;;;;;;0.50;82.49;101407.13;5057373;28;20539;-68
2021/01/15 11:07:54;;;;;;;20.97;13.97;;;;;;;0.43;82.58;101410.84;5061133;28;20452;-69
2021/01/15 11:10:20;;;;;;;22.90;13.97;;;;;;;0.59;81.58;101422.66;5058224;28;20449;-69
2021/01/15 11:12:47;;;;;;;22.50;15.77;;;;;;;0.67;81.71;101417.13;5060259;28;20586;-68
2021/01/15 11:15:13;;;;;;;19.10;12.80;;;;;;;0.57;81.59;101416.53;5058199;28;20460;-70
2021/01/15 11:17:40;;;;;;;21.93;14.43;;;;;;;0.70;81.53;101415.25;5059356;28;20460;-70